sensor_id;sensor_type;location;lat;lon;timestamp;P1;durP1;ratioP1;P2;durP2;ratioP2
53959;SDS011;39866;48.638;-2.020;2023-07-28T00:00:26;3.58;;;2.33;;
53959;SDS011;39866;48.638;-2.020;2023-07-28T00:02:51;3.40;;;2.08;;
53959;SDS011;39866;48.638;-2.020;2023-07-28T00:05:17;3.47;;;2.38;;
53959;SDS011;39866;48.638;-2.020;2023-07-28T00:07:42;3.90;;;2.25;;
53959;SDS011;39866;48.638;-2.020;2023-07-28T00:10:07;4.25;;;2.50;;
53959;SDS011;39866;48.638;-2.020;2023-07-28T00:12:33;3.17;;;2.40;;
53959;SDS011;39866;48.638;-2.020;2023-07-28T00:14:59;3.70;;;2.40;;
53959;SDS011;39866;48.638;-2.020;2023-07-28T00:17:25;4.65;;;2.40;;
53959;SDS011;39866;48.638;-2.020;2023-07-28T00:19:50;2.97;;;2.20;;
53959;SDS011;39866;48.638;-2.020;2023-07-28T00:22:16;2.78;;;1.92;;
53959;SDS011;39866;48.638;-2.020;2023-07-28T00:24:41;3.75;;;2.22;;
53959;SDS011;39866;48.638;-2.020;2023-07-28T00:27:06;3.88;;;2.47;;
53959;SDS011;39866;48.638;-2.020;2023-07-28T00:29:31;4.13;;;2.50;;
53959;SDS011;39866;48.638;-2.020;2023-07-28T00:31:57;3.85;;;2.40;;
53959;SDS011;39866;48.638;-2.020;2023-07-28T00:34:22;5.28;;;2.85;;
53959;SDS011;39866;48.638;-2.020;2023-07-28T00:36:47;4.68;;;2.80;;
53959;SDS011;39866;48.638;-2.020;2023-07-28T00:39:13;4.70;;;2.85;;
53959;SDS011;39866;48.638;-2.020;2023-07-28T00:41:38;4.00;;;2.70;;
53959;SDS011;39866;48.638;-2.020;2023-07-28T00:44:04;5.32;;;2.88;;
53959;SDS011;39866;48.638;-2.020;2023-07-28T00:46:29;5.25;;;2.97;;
53959;SDS011;39866;48.638;-2.020;2023-07-28T00:48:55;4.40;;;2.70;;
53959;SDS011;39866;48.638;-2.020;2023-07-28T00:51:21;5.90;;;3.15;;
53959;SDS011;39866;48.638;-2.020;2023-07-28T00:53:46;4.90;;;2.80;;
53959;SDS011;39866;48.638;-2.020;2023-07-28T00:56:12;4.70;;;2.40;;
53959;SDS011;39866;48.638;-2.020;2023-07-28T00:58:38;4.68;;;2.70;;
53959;SDS011;39866;48.638;-2.020;2023-07-28T01:01:04;4.47;;;2.63;;
53959;SDS011;39866;48.638;-2.020;2023-07-28T01:03:29;4.60;;;2.70;;
53959;SDS011;39866;48.638;-2.020;2023-07-28T01:06:06;3.78;;;2.75;;
53959;SDS011;39866;48.638;-2.020;2023-07-28T01:11:29;4.85;;;2.88;;
53959;SDS011;39866;48.638;-2.020;2023-07-28T01:13:55;5.22;;;2.90;;
53959;SDS011;39866;48.638;-2.020;2023-07-28T01:16:20;5.93;;;2.95;;
53959;SDS011;39866;48.638;-2.020;2023-07-28T01:18:46;6.25;;;3.17;;
53959;SDS011;39866;48.638;-2.020;2023-07-28T01:21:14;6.10;;;2.90;;
53959;SDS011;39866;48.638;-2.020;2023-07-28T01:26:12;5.47;;;3.10;;
53959;SDS011;39866;48.638;-2.020;2023-07-28T01:28:41;4.78;;;2.60;;
53959;SDS011;39866;48.638;-2.020;2023-07-28T01:31:08;5.05;;;3.20;;
53959;SDS011;39866;48.638;-2.020;2023-07-28T01:33:34;4.82;;;2.80;;
53959;SDS011;39866;48.638;-2.020;2023-07-28T01:36:00;4.25;;;2.92;;
53959;SDS011;39866;48.638;-2.020;2023-07-28T01:38:26;4.60;;;3.00;;
53959;SDS011;39866;48.638;-2.020;2023-07-28T01:40:54;4.57;;;2.70;;
53959;SDS011;39866;48.638;-2.020;2023-07-28T01:43:20;4.63;;;2.75;;
53959;SDS011;39866;48.638;-2.020;2023-07-28T01:45:45;4.30;;;2.80;;
53959;SDS011;39866;48.638;-2.020;2023-07-28T01:48:11;4.45;;;2.60;;
53959;SDS011;39866;48.638;-2.020;2023-07-28T01:50:36;4.10;;;2.70;;
53959;SDS011;39866;48.638;-2.020;2023-07-28T01:53:03;3.97;;;2.53;;
53959;SDS011;39866;48.638;-2.020;2023-07-28T01:55:29;4.97;;;2.67;;
53959;SDS011;39866;48.638;-2.020;2023-07-28T01:57:56;5.97;;;3.00;;
53959;SDS011;39866;48.638;-2.020;2023-07-28T02:00:22;4.55;;;3.00;;
53959;SDS011;39866;48.638;-2.020;2023-07-28T02:02:49;5.47;;;2.67;;
53959;SDS011;39866;48.638;-2.020;2023-07-28T02:05:14;4.88;;;3.00;;
53959;SDS011;39866;48.638;-2.020;2023-07-28T02:07:39;4.35;;;2.53;;
53959;SDS011;39866;48.638;-2.020;2023-07-28T02:10:05;4.72;;;2.65;;
53959;SDS011;39866;48.638;-2.020;2023-07-28T02:12:31;3.30;;;2.33;;
53959;SDS011;39866;48.638;-2.020;2023-07-28T02:14:56;3.33;;;2.25;;
53959;SDS011;39866;48.638;-2.020;2023-07-28T02:17:21;3.15;;;2.10;;
53959;SDS011;39866;48.638;-2.020;2023-07-28T02:19:47;3.65;;;2.33;;
53959;SDS011;39866;48.638;-2.020;2023-07-28T02:22:12;2.85;;;2.10;;
53959;SDS011;39866;48.638;-2.020;2023-07-28T02:24:37;2.58;;;1.85;;
53959;SDS011;39866;48.638;-2.020;2023-07-28T02:27:03;3.08;;;1.95;;
53959;SDS011;39866;48.638;-2.020;2023-07-28T02:29:28;2.38;;;1.90;;
53959;SDS011;39866;48.638;-2.020;2023-07-28T02:31:54;2.83;;;1.80;;
53959;SDS011;39866;48.638;-2.020;2023-07-28T02:34:19;3.33;;;1.60;;
53959;SDS011;39866;48.638;-2.020;2023-07-28T02:36:44;4.20;;;2.10;;
53959;SDS011;39866;48.638;-2.020;2023-07-28T02:39:09;2.88;;;1.80;;
53959;SDS011;39866;48.638;-2.020;2023-07-28T02:41:35;4.03;;;2.00;;
53959;SDS011;39866;48.638;-2.020;2023-07-28T02:44:00;3.22;;;1.80;;
53959;SDS011;39866;48.638;-2.020;2023-07-28T02:46:25;2.50;;;1.80;;
53959;SDS011;39866;48.638;-2.020;2023-07-28T02:48:51;2.85;;;1.77;;
53959;SDS011;39866;48.638;-2.020;2023-07-28T02:51:16;2.75;;;1.70;;
53959;SDS011;39866;48.638;-2.020;2023-07-28T02:53:41;4.15;;;1.85;;
53959;SDS011;39866;48.638;-2.020;2023-07-28T02:56:07;4.22;;;1.90;;
53959;SDS011;39866;48.638;-2.020;2023-07-28T02:58:32;2.63;;;1.70;;
53959;SDS011;39866;48.638;-2.020;2023-07-28T03:00:57;4.82;;;1.90;;
53959;SDS011;39866;48.638;-2.020;2023-07-28T03:03:23;2.33;;;1.63;;
53959;SDS011;39866;48.638;-2.020;2023-07-28T03:05:51;2.60;;;1.70;;
53959;SDS011;39866;48.638;-2.020;2023-07-28T03:08:17;2.97;;;2.00;;
53959;SDS011;39866;48.638;-2.020;2023-07-28T03:10:43;2.85;;;2.13;;
53959;SDS011;39866;48.638;-2.020;2023-07-28T03:13:08;3.08;;;1.73;;
53959;SDS011;39866;48.638;-2.020;2023-07-28T03:15:33;2.63;;;1.90;;
53959;SDS011;39866;48.638;-2.020;2023-07-28T03:17:58;2.45;;;1.65;;
53959;SDS011;39866;48.638;-2.020;2023-07-28T03:20:24;3.63;;;1.70;;
53959;SDS011;39866;48.638;-2.020;2023-07-28T03:22:50;3.47;;;1.80;;
53959;SDS011;39866;48.638;-2.020;2023-07-28T03:25:15;2.50;;;1.58;;
53959;SDS011;39866;48.638;-2.020;2023-07-28T03:27:41;2.40;;;1.60;;
53959;SDS011;39866;48.638;-2.020;2023-07-28T03:30:06;1.92;;;1.40;;
53959;SDS011;39866;48.638;-2.020;2023-07-28T03:32:35;3.58;;;1.35;;
53959;SDS011;39866;48.638;-2.020;2023-07-28T03:35:01;1.80;;;1.13;;
53959;SDS011;39866;48.638;-2.020;2023-07-28T03:37:26;3.28;;;1.10;;
53959;SDS011;39866;48.638;-2.020;2023-07-28T03:39:51;1.33;;;0.85;;
53959;SDS011;39866;48.638;-2.020;2023-07-28T03:42:17;1.15;;;0.90;;
53959;SDS011;39866;48.638;-2.020;2023-07-28T03:44:42;2.60;;;0.90;;
53959;SDS011;39866;48.638;-2.020;2023-07-28T03:47:08;1.55;;;0.73;;
53959;SDS011;39866;48.638;-2.020;2023-07-28T03:49:33;0.82;;;0.80;;
53959;SDS011;39866;48.638;-2.020;2023-07-28T03:51:59;0.77;;;0.60;;
53959;SDS011;39866;48.638;-2.020;2023-07-28T03:54:24;0.75;;;0.60;;
53959;SDS011;39866;48.638;-2.020;2023-07-28T03:56:50;1.13;;;0.50;;
53959;SDS011;39866;48.638;-2.020;2023-07-28T03:59:15;0.77;;;0.70;;
53959;SDS011;39866;48.638;-2.020;2023-07-28T04:01:40;1.45;;;0.70;;
53959;SDS011;39866;48.638;-2.020;2023-07-28T04:04:06;1.67;;;0.70;;
53959;SDS011;39866;48.638;-2.020;2023-07-28T04:09:06;1.23;;;0.93;;
53959;SDS011;39866;48.638;-2.020;2023-07-28T04:11:32;1.17;;;0.70;;
53959;SDS011;39866;48.638;-2.020;2023-07-28T04:13:58;1.83;;;0.60;;
53959;SDS011;39866;48.638;-2.020;2023-07-28T04:16:23;1.88;;;0.60;;
53959;SDS011;39866;48.638;-2.020;2023-07-28T04:18:48;1.10;;;0.60;;
53959;SDS011;39866;48.638;-2.020;2023-07-28T04:21:14;2.65;;;0.90;;
53959;SDS011;39866;48.638;-2.020;2023-07-28T04:23:39;0.93;;;0.60;;
53959;SDS011;39866;48.638;-2.020;2023-07-28T04:26:06;1.55;;;0.77;;
53959;SDS011;39866;48.638;-2.020;2023-07-28T04:28:31;1.83;;;0.73;;
53959;SDS011;39866;48.638;-2.020;2023-07-28T04:30:56;0.93;;;0.70;;
53959;SDS011;39866;48.638;-2.020;2023-07-28T04:33:22;1.00;;;0.90;;
53959;SDS011;39866;48.638;-2.020;2023-07-28T04:35:47;1.15;;;0.75;;
53959;SDS011;39866;48.638;-2.020;2023-07-28T04:38:12;1.23;;;0.80;;
53959;SDS011;39866;48.638;-2.020;2023-07-28T04:40:38;1.45;;;0.82;;
53959;SDS011;39866;48.638;-2.020;2023-07-28T04:43:03;1.08;;;0.82;;
53959;SDS011;39866;48.638;-2.020;2023-07-28T04:45:28;1.73;;;0.98;;
53959;SDS011;39866;48.638;-2.020;2023-07-28T04:47:53;0.98;;;0.98;;
53959;SDS011;39866;48.638;-2.020;2023-07-28T04:50:19;1.15;;;0.90;;
53959;SDS011;39866;48.638;-2.020;2023-07-28T04:52:44;1.67;;;0.88;;
53959;SDS011;39866;48.638;-2.020;2023-07-28T04:55:09;2.35;;;0.98;;
53959;SDS011;39866;48.638;-2.020;2023-07-28T04:57:35;1.95;;;1.02;;
53959;SDS011;39866;48.638;-2.020;2023-07-28T05:00:00;1.10;;;1.00;;
53959;SDS011;39866;48.638;-2.020;2023-07-28T05:02:25;3.17;;;0.95;;
53959;SDS011;39866;48.638;-2.020;2023-07-28T05:04:51;1.55;;;0.80;;
53959;SDS011;39866;48.638;-2.020;2023-07-28T05:07:16;1.70;;;0.90;;
53959;SDS011;39866;48.638;-2.020;2023-07-28T05:09:41;1.55;;;0.90;;
53959;SDS011;39866;48.638;-2.020;2023-07-28T05:12:07;0.90;;;0.77;;
53959;SDS011;39866;48.638;-2.020;2023-07-28T05:14:33;1.40;;;0.90;;
53959;SDS011;39866;48.638;-2.020;2023-07-28T05:16:59;1.35;;;0.80;;
53959;SDS011;39866;48.638;-2.020;2023-07-28T05:19:24;1.38;;;0.80;;
53959;SDS011;39866;48.638;-2.020;2023-07-28T05:21:49;0.77;;;0.77;;
53959;SDS011;39866;48.638;-2.020;2023-07-28T05:24:15;1.00;;;0.90;;
53959;SDS011;39866;48.638;-2.020;2023-07-28T05:26:40;1.45;;;0.85;;
53959;SDS011;39866;48.638;-2.020;2023-07-28T05:29:05;0.80;;;0.70;;
53959;SDS011;39866;48.638;-2.020;2023-07-28T05:31:31;1.05;;;0.90;;
53959;SDS011;39866;48.638;-2.020;2023-07-28T05:33:56;1.83;;;0.98;;
53959;SDS011;39866;48.638;-2.020;2023-07-28T05:36:22;2.88;;;1.50;;
53959;SDS011;39866;48.638;-2.020;2023-07-28T05:38:48;1.85;;;1.00;;
53959;SDS011;39866;48.638;-2.020;2023-07-28T05:41:13;3.03;;;1.02;;
53959;SDS011;39866;48.638;-2.020;2023-07-28T05:43:38;1.52;;;0.90;;
53959;SDS011;39866;48.638;-2.020;2023-07-28T05:46:04;0.88;;;0.80;;
53959;SDS011;39866;48.638;-2.020;2023-07-28T05:48:29;1.58;;;1.10;;
53959;SDS011;39866;48.638;-2.020;2023-07-28T05:50:54;1.42;;;0.98;;
53959;SDS011;39866;48.638;-2.020;2023-07-28T05:53:20;1.98;;;1.10;;
53959;SDS011;39866;48.638;-2.020;2023-07-28T05:55:46;1.00;;;0.90;;
53959;SDS011;39866;48.638;-2.020;2023-07-28T05:58:12;2.05;;;1.02;;
53959;SDS011;39866;48.638;-2.020;2023-07-28T06:00:40;0.90;;;0.90;;
53959;SDS011;39866;48.638;-2.020;2023-07-28T06:03:12;1.20;;;0.98;;
53959;SDS011;39866;48.638;-2.020;2023-07-28T06:05:40;1.85;;;1.02;;
53959;SDS011;39866;48.638;-2.020;2023-07-28T06:08:06;1.40;;;1.05;;
53959;SDS011;39866;48.638;-2.020;2023-07-28T06:10:31;1.35;;;0.98;;
53959;SDS011;39866;48.638;-2.020;2023-07-28T06:12:57;2.40;;;1.08;;
53959;SDS011;39866;48.638;-2.020;2023-07-28T06:15:23;1.90;;;0.90;;
53959;SDS011;39866;48.638;-2.020;2023-07-28T06:17:48;1.10;;;1.00;;
53959;SDS011;39866;48.638;-2.020;2023-07-28T06:20:14;1.58;;;0.93;;
53959;SDS011;39866;48.638;-2.020;2023-07-28T06:22:39;0.90;;;0.90;;
53959;SDS011;39866;48.638;-2.020;2023-07-28T06:25:04;1.13;;;1.00;;
53959;SDS011;39866;48.638;-2.020;2023-07-28T06:27:30;1.20;;;1.10;;
53959;SDS011;39866;48.638;-2.020;2023-07-28T06:29:55;2.17;;;0.90;;
53959;SDS011;39866;48.638;-2.020;2023-07-28T06:32:21;3.75;;;1.20;;
53959;SDS011;39866;48.638;-2.020;2023-07-28T06:34:48;1.77;;;1.25;;
53959;SDS011;39866;48.638;-2.020;2023-07-28T06:37:13;1.88;;;1.10;;
53959;SDS011;39866;48.638;-2.020;2023-07-28T06:39:39;1.67;;;1.10;;
53959;SDS011;39866;48.638;-2.020;2023-07-28T06:42:04;2.03;;;1.05;;
53959;SDS011;39866;48.638;-2.020;2023-07-28T06:44:30;1.10;;;1.00;;
53959;SDS011;39866;48.638;-2.020;2023-07-28T06:46:56;1.85;;;0.95;;
53959;SDS011;39866;48.638;-2.020;2023-07-28T06:49:21;1.15;;;0.80;;
53959;SDS011;39866;48.638;-2.020;2023-07-28T06:51:47;0.90;;;0.90;;
53959;SDS011;39866;48.638;-2.020;2023-07-28T06:54:12;1.50;;;0.70;;
53959;SDS011;39866;48.638;-2.020;2023-07-28T06:56:38;1.00;;;0.90;;
53959;SDS011;39866;48.638;-2.020;2023-07-28T06:59:04;1.00;;;0.80;;
53959;SDS011;39866;48.638;-2.020;2023-07-28T07:01:31;1.20;;;1.00;;
53959;SDS011;39866;48.638;-2.020;2023-07-28T07:03:57;0.80;;;0.80;;
53959;SDS011;39866;48.638;-2.020;2023-07-28T07:06:22;0.90;;;0.80;;
53959;SDS011;39866;48.638;-2.020;2023-07-28T07:08:48;1.10;;;0.90;;
53959;SDS011;39866;48.638;-2.020;2023-07-28T07:11:13;1.00;;;0.70;;
53959;SDS011;39866;48.638;-2.020;2023-07-28T07:13:38;1.38;;;0.80;;
53959;SDS011;39866;48.638;-2.020;2023-07-28T07:16:04;0.80;;;0.80;;
53959;SDS011;39866;48.638;-2.020;2023-07-28T07:18:31;1.17;;;1.15;;
53959;SDS011;39866;48.638;-2.020;2023-07-28T07:21:00;1.20;;;0.93;;
53959;SDS011;39866;48.638;-2.020;2023-07-28T07:23:27;0.90;;;0.90;;
53959;SDS011;39866;48.638;-2.020;2023-07-28T07:25:52;3.08;;;0.95;;
53959;SDS011;39866;48.638;-2.020;2023-07-28T07:28:18;1.05;;;1.00;;
53959;SDS011;39866;48.638;-2.020;2023-07-28T07:30:43;1.55;;;1.05;;
53959;SDS011;39866;48.638;-2.020;2023-07-28T07:33:08;1.20;;;1.17;;
53959;SDS011;39866;48.638;-2.020;2023-07-28T07:35:37;1.17;;;1.08;;
53959;SDS011;39866;48.638;-2.020;2023-07-28T07:38:04;1.50;;;1.40;;
53959;SDS011;39866;48.638;-2.020;2023-07-28T07:40:33;1.20;;;1.10;;
53959;SDS011;39866;48.638;-2.020;2023-07-28T07:42:59;1.25;;;1.10;;
53959;SDS011;39866;48.638;-2.020;2023-07-28T07:45:24;1.00;;;1.00;;
53959;SDS011;39866;48.638;-2.020;2023-07-28T07:47:50;1.08;;;1.08;;
53959;SDS011;39866;48.638;-2.020;2023-07-28T07:50:15;1.10;;;1.00;;
53959;SDS011;39866;48.638;-2.020;2023-07-28T07:52:41;1.20;;;1.10;;
53959;SDS011;39866;48.638;-2.020;2023-07-28T07:55:06;1.38;;;1.00;;
53959;SDS011;39866;48.638;-2.020;2023-07-28T07:57:33;1.15;;;0.90;;
53959;SDS011;39866;48.638;-2.020;2023-07-28T07:59:59;1.50;;;1.10;;
53959;SDS011;39866;48.638;-2.020;2023-07-28T08:02:24;1.05;;;0.93;;
53959;SDS011;39866;48.638;-2.020;2023-07-28T08:04:51;1.63;;;1.13;;
53959;SDS011;39866;48.638;-2.020;2023-07-28T08:07:16;1.55;;;1.15;;
53959;SDS011;39866;48.638;-2.020;2023-07-28T08:09:42;2.45;;;1.10;;
53959;SDS011;39866;48.638;-2.020;2023-07-28T08:12:07;1.30;;;1.20;;
53959;SDS011;39866;48.638;-2.020;2023-07-28T08:14:33;1.00;;;1.00;;
53959;SDS011;39866;48.638;-2.020;2023-07-28T08:16:59;1.45;;;1.10;;
53959;SDS011;39866;48.638;-2.020;2023-07-28T08:19:24;2.13;;;1.10;;
53959;SDS011;39866;48.638;-2.020;2023-07-28T08:21:50;3.33;;;1.00;;
53959;SDS011;39866;48.638;-2.020;2023-07-28T08:24:16;2.80;;;1.20;;
53959;SDS011;39866;48.638;-2.020;2023-07-28T08:26:41;2.08;;;1.30;;
53959;SDS011;39866;48.638;-2.020;2023-07-28T08:29:06;1.10;;;1.10;;
53959;SDS011;39866;48.638;-2.020;2023-07-28T08:31:32;1.40;;;1.20;;
53959;SDS011;39866;48.638;-2.020;2023-07-28T08:33:57;1.63;;;1.17;;
53959;SDS011;39866;48.638;-2.020;2023-07-28T08:36:22;3.17;;;1.35;;
53959;SDS011;39866;48.638;-2.020;2023-07-28T08:38:47;2.72;;;1.23;;
53959;SDS011;39866;48.638;-2.020;2023-07-28T08:41:14;1.05;;;1.00;;
53959;SDS011;39866;48.638;-2.020;2023-07-28T08:43:39;1.30;;;1.20;;
53959;SDS011;39866;48.638;-2.020;2023-07-28T08:46:05;1.80;;;1.20;;
53959;SDS011;39866;48.638;-2.020;2023-07-28T08:48:30;1.48;;;1.25;;
53959;SDS011;39866;48.638;-2.020;2023-07-28T08:50:55;1.65;;;1.10;;
53959;SDS011;39866;48.638;-2.020;2023-07-28T08:53:21;1.95;;;1.60;;
53959;SDS011;39866;48.638;-2.020;2023-07-28T08:55:47;1.15;;;1.10;;
53959;SDS011;39866;48.638;-2.020;2023-07-28T08:58:13;1.30;;;1.20;;
53959;SDS011;39866;48.638;-2.020;2023-07-28T09:00:43;1.17;;;1.15;;
53959;SDS011;39866;48.638;-2.020;2023-07-28T09:03:10;1.70;;;1.33;;
53959;SDS011;39866;48.638;-2.020;2023-07-28T09:05:36;3.30;;;1.13;;
53959;SDS011;39866;48.638;-2.020;2023-07-28T09:08:01;3.88;;;1.52;;
53959;SDS011;39866;48.638;-2.020;2023-07-28T09:10:39;1.60;;;1.50;;
53959;SDS011;39866;48.638;-2.020;2023-07-28T09:13:13;3.38;;;1.27;;
53959;SDS011;39866;48.638;-2.020;2023-07-28T09:15:40;2.25;;;1.20;;
53959;SDS011;39866;48.638;-2.020;2023-07-28T09:18:10;1.92;;;1.30;;
53959;SDS011;39866;48.638;-2.020;2023-07-28T09:20:37;2.20;;;1.30;;
53959;SDS011;39866;48.638;-2.020;2023-07-28T09:23:04;2.63;;;1.25;;
53959;SDS011;39866;48.638;-2.020;2023-07-28T09:25:30;2.47;;;1.30;;
53959;SDS011;39866;48.638;-2.020;2023-07-28T09:27:57;2.92;;;1.60;;
53959;SDS011;39866;48.638;-2.020;2023-07-28T09:30:23;1.23;;;1.10;;
53959;SDS011;39866;48.638;-2.020;2023-07-28T09:32:50;1.67;;;1.17;;
53959;SDS011;39866;48.638;-2.020;2023-07-28T09:35:18;3.00;;;1.70;;
53959;SDS011;39866;48.638;-2.020;2023-07-28T09:37:45;3.50;;;1.70;;
53959;SDS011;39866;48.638;-2.020;2023-07-28T09:40:13;3.05;;;1.20;;
53959;SDS011;39866;48.638;-2.020;2023-07-28T09:42:43;1.70;;;1.38;;
53959;SDS011;39866;48.638;-2.020;2023-07-28T09:45:14;1.27;;;1.17;;
53959;SDS011;39866;48.638;-2.020;2023-07-28T09:47:40;1.80;;;1.17;;
53959;SDS011;39866;48.638;-2.020;2023-07-28T09:50:08;1.30;;;1.20;;
53959;SDS011;39866;48.638;-2.020;2023-07-28T09:52:42;2.17;;;1.38;;
53959;SDS011;39866;48.638;-2.020;2023-07-28T09:55:09;3.00;;;1.00;;
53959;SDS011;39866;48.638;-2.020;2023-07-28T09:57:50;1.20;;;1.10;;
53959;SDS011;39866;48.638;-2.020;2023-07-28T10:00:16;1.20;;;1.10;;
53959;SDS011;39866;48.638;-2.020;2023-07-28T10:02:44;0.93;;;0.93;;
53959;SDS011;39866;48.638;-2.020;2023-07-28T10:05:10;1.20;;;1.10;;
53959;SDS011;39866;48.638;-2.020;2023-07-28T10:07:39;1.33;;;1.23;;
53959;SDS011;39866;48.638;-2.020;2023-07-28T10:10:06;1.63;;;1.20;;
53959;SDS011;39866;48.638;-2.020;2023-07-28T10:15:07;1.20;;;1.08;;
53959;SDS011;39866;48.638;-2.020;2023-07-28T10:17:33;2.95;;;1.10;;
53959;SDS011;39866;48.638;-2.020;2023-07-28T10:20:00;1.15;;;1.00;;
53959;SDS011;39866;48.638;-2.020;2023-07-28T10:22:31;1.10;;;1.00;;
53959;SDS011;39866;48.638;-2.020;2023-07-28T10:25:00;2.75;;;1.25;;
53959;SDS011;39866;48.638;-2.020;2023-07-28T10:27:40;1.65;;;1.13;;
53959;SDS011;39866;48.638;-2.020;2023-07-28T10:30:11;1.38;;;1.20;;
53959;SDS011;39866;48.638;-2.020;2023-07-28T10:32:44;1.80;;;1.30;;
53959;SDS011;39866;48.638;-2.020;2023-07-28T10:37:43;3.05;;;1.50;;
53959;SDS011;39866;48.638;-2.020;2023-07-28T10:40:22;3.20;;;1.70;;
53959;SDS011;39866;48.638;-2.020;2023-07-28T10:43:00;2.58;;;1.60;;
53959;SDS011;39866;48.638;-2.020;2023-07-28T10:45:32;1.80;;;1.40;;
53959;SDS011;39866;48.638;-2.020;2023-07-28T10:47:58;1.30;;;1.20;;
53959;SDS011;39866;48.638;-2.020;2023-07-28T10:50:29;1.80;;;1.50;;
53959;SDS011;39866;48.638;-2.020;2023-07-28T10:52:55;3.15;;;1.48;;
53959;SDS011;39866;48.638;-2.020;2023-07-28T10:55:25;4.05;;;2.40;;
53959;SDS011;39866;48.638;-2.020;2023-07-28T10:57:52;2.53;;;1.80;;
53959;SDS011;39866;48.638;-2.020;2023-07-28T11:00:19;2.25;;;1.60;;
53959;SDS011;39866;48.638;-2.020;2023-07-28T11:02:50;2.25;;;1.30;;
53959;SDS011;39866;48.638;-2.020;2023-07-28T11:05:27;1.65;;;1.40;;
53959;SDS011;39866;48.638;-2.020;2023-07-28T11:07:54;1.48;;;1.10;;
53959;SDS011;39866;48.638;-2.020;2023-07-28T11:10:21;2.30;;;1.40;;
53959;SDS011;39866;48.638;-2.020;2023-07-28T11:12:48;1.67;;;1.20;;
53959;SDS011;39866;48.638;-2.020;2023-07-28T11:15:15;2.75;;;1.50;;
53959;SDS011;39866;48.638;-2.020;2023-07-28T11:17:48;1.67;;;1.48;;
53959;SDS011;39866;48.638;-2.020;2023-07-28T11:20:16;2.90;;;2.10;;
53959;SDS011;39866;48.638;-2.020;2023-07-28T11:22:46;2.22;;;1.40;;
53959;SDS011;39866;48.638;-2.020;2023-07-28T11:25:17;2.13;;;1.52;;
53959;SDS011;39866;48.638;-2.020;2023-07-28T11:27:42;2.55;;;1.60;;
53959;SDS011;39866;48.638;-2.020;2023-07-28T11:30:08;1.95;;;1.50;;
53959;SDS011;39866;48.638;-2.020;2023-07-28T11:32:35;3.40;;;1.67;;
53959;SDS011;39866;48.638;-2.020;2023-07-28T11:35:02;4.35;;;1.92;;
53959;SDS011;39866;48.638;-2.020;2023-07-28T11:37:29;3.90;;;2.15;;
53959;SDS011;39866;48.638;-2.020;2023-07-28T11:39:55;3.80;;;1.75;;
53959;SDS011;39866;48.638;-2.020;2023-07-28T11:42:22;2.35;;;1.50;;
53959;SDS011;39866;48.638;-2.020;2023-07-28T11:44:47;1.20;;;1.10;;
53959;SDS011;39866;48.638;-2.020;2023-07-28T11:47:18;2.50;;;1.65;;
53959;SDS011;39866;48.638;-2.020;2023-07-28T11:49:47;2.70;;;1.70;;
53959;SDS011;39866;48.638;-2.020;2023-07-28T11:52:13;2.15;;;1.27;;
53959;SDS011;39866;48.638;-2.020;2023-07-28T11:54:40;2.55;;;1.40;;
53959;SDS011;39866;48.638;-2.020;2023-07-28T11:57:07;1.92;;;1.25;;
53959;SDS011;39866;48.638;-2.020;2023-07-28T11:59:34;1.95;;;1.40;;
53959;SDS011;39866;48.638;-2.020;2023-07-28T12:02:00;1.65;;;1.40;;
53959;SDS011;39866;48.638;-2.020;2023-07-28T12:04:28;4.75;;;3.35;;
53959;SDS011;39866;48.638;-2.020;2023-07-28T12:09:31;1.52;;;1.40;;
53959;SDS011;39866;48.638;-2.020;2023-07-28T12:12:17;2.38;;;1.60;;
53959;SDS011;39866;48.638;-2.020;2023-07-28T12:14:44;3.20;;;1.77;;
53959;SDS011;39866;48.638;-2.020;2023-07-28T12:17:12;5.47;;;2.70;;
53959;SDS011;39866;48.638;-2.020;2023-07-28T12:22:40;3.67;;;2.30;;
53959;SDS011;39866;48.638;-2.020;2023-07-28T12:25:06;2.75;;;1.83;;
53959;SDS011;39866;48.638;-2.020;2023-07-28T12:27:33;1.58;;;1.48;;
53959;SDS011;39866;48.638;-2.020;2023-07-28T12:29:59;4.03;;;2.20;;
53959;SDS011;39866;48.638;-2.020;2023-07-28T12:32:24;3.00;;;1.80;;
53959;SDS011;39866;48.638;-2.020;2023-07-28T12:34:50;2.25;;;1.50;;
53959;SDS011;39866;48.638;-2.020;2023-07-28T12:37:19;1.98;;;1.70;;
53959;SDS011;39866;48.638;-2.020;2023-07-28T12:39:45;1.85;;;1.55;;
53959;SDS011;39866;48.638;-2.020;2023-07-28T12:42:11;2.85;;;1.95;;
53959;SDS011;39866;48.638;-2.020;2023-07-28T12:44:37;2.28;;;1.48;;
53959;SDS011;39866;48.638;-2.020;2023-07-28T12:47:03;3.33;;;2.38;;
53959;SDS011;39866;48.638;-2.020;2023-07-28T12:49:29;2.33;;;1.60;;
53959;SDS011;39866;48.638;-2.020;2023-07-28T12:51:56;2.22;;;1.58;;
53959;SDS011;39866;48.638;-2.020;2023-07-28T12:54:24;1.88;;;1.60;;
53959;SDS011;39866;48.638;-2.020;2023-07-28T12:56:50;1.60;;;1.50;;
53959;SDS011;39866;48.638;-2.020;2023-07-28T12:59:16;2.97;;;1.63;;
53959;SDS011;39866;48.638;-2.020;2023-07-28T13:01:41;2.35;;;1.40;;
53959;SDS011;39866;48.638;-2.020;2023-07-28T13:04:07;2.10;;;1.50;;
53959;SDS011;39866;48.638;-2.020;2023-07-28T13:06:32;1.60;;;1.50;;
53959;SDS011;39866;48.638;-2.020;2023-07-28T13:08:58;1.70;;;1.60;;
53959;SDS011;39866;48.638;-2.020;2023-07-28T13:11:23;2.22;;;1.70;;
53959;SDS011;39866;48.638;-2.020;2023-07-28T13:13:49;1.90;;;1.80;;
53959;SDS011;39866;48.638;-2.020;2023-07-28T13:16:14;2.08;;;1.88;;
53959;SDS011;39866;48.638;-2.020;2023-07-28T13:18:40;4.45;;;1.80;;
53959;SDS011;39866;48.638;-2.020;2023-07-28T13:21:07;2.53;;;1.60;;
53959;SDS011;39866;48.638;-2.020;2023-07-28T13:23:33;1.70;;;1.60;;
53959;SDS011;39866;48.638;-2.020;2023-07-28T13:25:59;2.65;;;1.90;;
53959;SDS011;39866;48.638;-2.020;2023-07-28T13:28:24;2.90;;;1.90;;
53959;SDS011;39866;48.638;-2.020;2023-07-28T13:30:50;2.42;;;1.83;;
53959;SDS011;39866;48.638;-2.020;2023-07-28T13:33:16;4.82;;;1.90;;
53959;SDS011;39866;48.638;-2.020;2023-07-28T13:35:41;2.47;;;1.90;;
53959;SDS011;39866;48.638;-2.020;2023-07-28T13:38:07;3.15;;;2.00;;
53959;SDS011;39866;48.638;-2.020;2023-07-28T13:40:32;3.15;;;2.00;;
53959;SDS011;39866;48.638;-2.020;2023-07-28T13:42:58;1.90;;;1.70;;
53959;SDS011;39866;48.638;-2.020;2023-07-28T13:45:23;2.22;;;2.00;;
53959;SDS011;39866;48.638;-2.020;2023-07-28T13:47:48;3.72;;;2.15;;
53959;SDS011;39866;48.638;-2.020;2023-07-28T13:50:14;4.88;;;2.60;;
53959;SDS011;39866;48.638;-2.020;2023-07-28T13:52:40;5.82;;;2.63;;
53959;SDS011;39866;48.638;-2.020;2023-07-28T13:55:05;2.72;;;2.20;;
53959;SDS011;39866;48.638;-2.020;2023-07-28T13:57:31;3.72;;;2.70;;
53959;SDS011;39866;48.638;-2.020;2023-07-28T13:59:57;7.28;;;3.95;;
53959;SDS011;39866;48.638;-2.020;2023-07-28T14:02:22;3.53;;;3.10;;
53959;SDS011;39866;48.638;-2.020;2023-07-28T14:04:48;3.03;;;2.60;;
53959;SDS011;39866;48.638;-2.020;2023-07-28T14:07:13;2.65;;;2.10;;
53959;SDS011;39866;48.638;-2.020;2023-07-28T14:09:39;4.95;;;2.45;;
53959;SDS011;39866;48.638;-2.020;2023-07-28T14:12:04;2.58;;;2.05;;
53959;SDS011;39866;48.638;-2.020;2023-07-28T14:14:30;2.92;;;2.40;;
53959;SDS011;39866;48.638;-2.020;2023-07-28T14:16:55;3.83;;;2.10;;
53959;SDS011;39866;48.638;-2.020;2023-07-28T14:19:20;6.45;;;1.95;;
53959;SDS011;39866;48.638;-2.020;2023-07-28T14:21:46;2.75;;;2.38;;
53959;SDS011;39866;48.638;-2.020;2023-07-28T14:24:11;3.95;;;2.00;;
53959;SDS011;39866;48.638;-2.020;2023-07-28T14:26:37;2.67;;;2.40;;
53959;SDS011;39866;48.638;-2.020;2023-07-28T14:29:02;3.72;;;2.70;;
53959;SDS011;39866;48.638;-2.020;2023-07-28T14:31:27;2.63;;;2.10;;
53959;SDS011;39866;48.638;-2.020;2023-07-28T14:33:53;2.72;;;2.10;;
53959;SDS011;39866;48.638;-2.020;2023-07-28T14:36:19;2.63;;;2.30;;
53959;SDS011;39866;48.638;-2.020;2023-07-28T14:38:44;3.30;;;2.20;;
53959;SDS011;39866;48.638;-2.020;2023-07-28T14:41:09;3.50;;;2.30;;
53959;SDS011;39866;48.638;-2.020;2023-07-28T14:43:34;3.15;;;2.05;;
53959;SDS011;39866;48.638;-2.020;2023-07-28T14:46:00;3.95;;;2.30;;